createdAt,value
2023-04-28T00:00:43.456Z,101178.53
2023-04-28T00:03:14.625Z,101173.63
2023-04-28T00:05:42.488Z,101174.06
2023-04-28T00:08:10.353Z,101161.94
2023-04-28T00:10:45.838Z,101157.09
2023-04-28T00:13:16.267Z,101162.75
2023-04-28T00:15:44.876Z,101156.28
2023-04-28T00:18:18.506Z,101157.91
2023-04-28T00:20:49.638Z,101155.06
2023-04-28T00:23:20.312Z,101154.28
2023-04-28T00:25:57.681Z,101146.56
2023-04-28T00:28:34.697Z,101145.34
2023-04-28T00:31:14.760Z,101147.81
2023-04-28T00:33:45.594Z,101149.38
2023-04-28T00:36:13.608Z,101145.75
2023-04-28T00:38:41.406Z,101150.59
2023-04-28T00:41:18.344Z,101149.78
2023-04-28T00:43:49.454Z,101147.34
2023-04-28T00:46:29.617Z,101149.38
2023-04-28T00:49:00.660Z,101152.19
2023-04-28T00:51:33.802Z,101153.00
2023-04-28T00:54:04.235Z,101157.41
2023-04-28T00:56:36.792Z,101153.41
2023-04-28T00:59:09.689Z,101150.94
2023-04-28T01:01:38.936Z,101153.34
2023-04-28T01:04:12.242Z,101154.59
2023-04-28T01:06:48.510Z,101153.41
2023-04-28T01:09:19.615Z,101142.47
2023-04-28T01:11:47.548Z,101145.28
2023-04-28T01:14:38.846Z,101136.00
2023-04-28T01:17:08.371Z,101146.50
2023-04-28T01:19:36.975Z,101148.94
2023-04-28T01:22:16.988Z,101141.25
2023-04-28T01:24:48.098Z,101149.75
2023-04-28T01:27:16.659Z,101144.50
2023-04-28T01:29:47.829Z,101144.06
2023-04-28T01:32:18.219Z,101142.44
2023-04-28T01:34:46.178Z,101148.91
2023-04-28T01:37:16.337Z,101145.28
2023-04-28T01:39:46.290Z,101143.22
2023-04-28T01:42:13.777Z,101153.31
2023-04-28T01:44:42.950Z,101146.47
2023-04-28T01:47:17.909Z,101143.63
2023-04-28T01:49:50.066Z,101148.88
2023-04-28T01:52:24.298Z,101162.22
2023-04-28T01:54:55.181Z,101158.97
2023-04-28T01:57:26.109Z,101155.72
2023-04-28T02:00:01.482Z,101168.25
2023-04-28T02:02:37.034Z,101164.22
2023-04-28T02:05:06.310Z,101169.88
2023-04-28T02:07:35.097Z,101173.50
2023-04-28T02:10:06.824Z,101176.34
2023-04-28T02:12:38.093Z,101183.59
2023-04-28T02:15:09.282Z,101185.22
2023-04-28T02:17:45.190Z,101184.03
2023-04-28T02:20:18.362Z,101186.00
2023-04-28T02:22:50.495Z,101179.16
2023-04-28T02:25:23.424Z,101166.19
2023-04-28T02:27:56.566Z,101161.38
2023-04-28T02:30:29.819Z,101164.22
2023-04-28T02:32:59.569Z,101175.50
2023-04-28T02:35:28.335Z,101177.91
2023-04-28T02:37:59.966Z,101177.13
2023-04-28T02:40:27.588Z,101174.28
2023-04-28T02:43:04.163Z,101171.44
2023-04-28T02:45:35.205Z,101173.06
2023-04-28T02:48:04.663Z,101175.06
2023-04-28T02:50:32.549Z,101176.28
2023-04-28T02:53:03.146Z,101175.06
2023-04-28T02:55:34.205Z,101181.50
2023-04-28T02:58:10.099Z,101179.47
2023-04-28T03:00:41.455Z,101177.06
2023-04-28T03:03:16.058Z,101177.84
2023-04-28T03:05:49.664Z,101181.06
2023-04-28T03:08:22.855Z,101186.72
2023-04-28T03:10:54.585Z,101193.59
2023-04-28T03:13:25.798Z,101200.47
2023-04-28T03:15:56.505Z,101200.84
2023-04-28T03:18:28.548Z,101209.34
2023-04-28T03:20:59.819Z,101216.22
2023-04-28T03:23:33.296Z,101212.94
2023-04-28T03:26:03.877Z,101202.84
2023-04-28T03:28:35.239Z,101197.19
2023-04-28T03:31:03.319Z,101193.94
2023-04-28T03:33:31.589Z,101187.50
2023-04-28T03:36:07.105Z,101183.06
2023-04-28T03:38:39.980Z,101184.66
2023-04-28T03:41:08.020Z,101180.63
2023-04-28T03:43:57.214Z,101177.81
2023-04-28T03:46:34.733Z,101173.75
2023-04-28T03:49:05.450Z,101171.75
2023-04-28T03:51:33.193Z,101178.59
2023-04-28T03:54:07.385Z,101183.78
2023-04-28T03:56:39.470Z,101178.97
2023-04-28T03:59:12.082Z,101179.78
2023-04-28T04:01:49.930Z,101185.00
2023-04-28T04:04:23.337Z,101181.81
2023-04-28T04:06:55.394Z,101183.78
2023-04-28T04:09:23.310Z,101183.78
2023-04-28T04:11:53.829Z,101177.72
2023-04-28T04:14:30.906Z,101187.41
2023-04-28T04:17:02.188Z,101192.28
2023-04-28T04:19:32.806Z,101191.47
2023-04-28T04:22:06.649Z,101188.63
2023-04-28T04:24:37.485Z,101204.81
2023-04-28T04:27:08.788Z,101200.72
2023-04-28T04:29:39.837Z,101197.13
2023-04-28T04:32:18.895Z,101201.59
2023-04-28T04:34:52.732Z,101202.78
2023-04-28T04:37:23.218Z,101210.03
2023-04-28T04:40:03.558Z,101201.09
2023-04-28T04:42:40.707Z,101195.44
2023-04-28T04:45:12.783Z,101193.44
2023-04-28T04:47:40.970Z,101188.13
2023-04-28T04:50:12.315Z,101192.22
2023-04-28T04:52:43.837Z,101193.44
2023-04-28T04:55:14.298Z,101195.41
2023-04-28T04:57:45.849Z,101192.63
2023-04-28T05:00:38.308Z,101190.59
2023-04-28T05:03:06.672Z,101200.69
2023-04-28T05:05:37.691Z,101200.66
2023-04-28T05:08:24.336Z,101204.66
2023-04-28T05:10:58.739Z,101197.84
2023-04-28T05:13:29.197Z,101202.69
2023-04-28T05:16:04.550Z,101209.56
2023-04-28T05:18:57.370Z,101207.13
2023-04-28T05:21:28.650Z,101222.47
2023-04-28T05:24:01.773Z,101221.25
2023-04-28T05:26:34.351Z,101223.31
2023-04-28T05:29:07.391Z,101227.38
2023-04-28T05:31:42.994Z,101228.59
2023-04-28T05:34:23.767Z,101222.94
2023-04-28T05:36:57.451Z,101224.56
2023-04-28T05:39:31.110Z,101229.38
2023-04-28T05:42:04.557Z,101231.00
2023-04-28T05:44:38.973Z,101235.41
2023-04-28T05:47:12.289Z,101225.72
2023-04-28T05:49:40.071Z,101225.34
2023-04-28T05:52:08.187Z,101220.44
2023-04-28T05:54:36.928Z,101220.50
2023-04-28T05:57:08.269Z,101212.53
2023-04-28T05:59:36.182Z,101218.19
2023-04-28T06:02:03.908Z,101221.88
2023-04-28T06:04:40.124Z,101232.09
2023-04-28T06:07:10.677Z,101233.38
2023-04-28T06:09:39.344Z,101241.19
2023-04-28T06:12:07.413Z,101244.94
2023-04-28T06:14:37.763Z,101258.25
2023-04-28T06:17:07.289Z,101254.19
2023-04-28T06:19:34.819Z,101253.91
2023-04-28T06:22:07.587Z,101246.78
2023-04-28T06:24:41.858Z,101258.59
2023-04-28T06:27:13.045Z,101245.00
2023-04-28T06:29:41.068Z,101237.53
2023-04-28T06:32:13.971Z,101239.25
2023-04-28T06:34:43.025Z,101240.47
2023-04-28T06:37:10.960Z,101237.25
2023-04-28T06:39:44.962Z,101240.97
2023-04-28T06:42:13.750Z,101245.50
2023-04-28T06:44:53.265Z,101252.78
2023-04-28T06:47:26.549Z,101254.38
2023-04-28T06:50:01.805Z,101249.03
2023-04-28T06:52:38.611Z,101256.72
2023-04-28T06:55:15.266Z,101259.06
2023-04-28T06:57:45.742Z,101259.41
2023-04-28T07:00:14.180Z,101253.69
2023-04-28T07:02:45.062Z,101248.00
2023-04-28T07:05:16.772Z,101251.56
2023-04-28T07:07:46.409Z,101249.94
2023-04-28T07:10:19.319Z,101246.69
2023-04-28T07:12:52.433Z,101238.09
2023-04-28T07:15:20.532Z,101229.53
2023-04-28T07:17:53.441Z,101237.31
2023-04-28T07:20:24.429Z,101238.47
2023-04-28T07:23:08.032Z,101245.69
2023-04-28T07:25:41.684Z,101244.84
2023-04-28T07:28:14.577Z,101237.56
2023-04-28T07:30:48.024Z,101240.72
2023-04-28T07:33:17.905Z,101246.44
2023-04-28T07:35:49.616Z,101240.34
2023-04-28T07:38:20.672Z,101242.72
2023-04-28T07:40:53.738Z,101248.41
2023-04-28T07:43:27.639Z,101253.56
2023-04-28T07:45:59.231Z,101244.25
2023-04-28T07:48:27.470Z,101244.25
2023-04-28T07:50:58.320Z,101246.66
2023-04-28T07:53:29.181Z,101249.19
2023-04-28T07:55:59.789Z,101240.63
2023-04-28T07:58:33.290Z,101241.81
2023-04-28T08:01:04.881Z,101246.69
2023-04-28T08:03:35.384Z,101247.09
2023-04-28T08:06:05.958Z,101244.22
2023-04-28T08:08:37.032Z,101247.41
2023-04-28T08:11:14.353Z,101255.91
2023-04-28T08:13:49.765Z,101249.19
2023-04-28T08:16:23.653Z,101253.06
2023-04-28T08:18:52.737Z,101250.25
2023-04-28T08:21:27.133Z,101242.03
2023-04-28T08:23:55.320Z,101236.94
2023-04-28T08:26:26.264Z,101241.63
2023-04-28T08:28:54.195Z,101231.91
2023-04-28T08:31:25.436Z,101230.72
2023-04-28T08:33:58.373Z,101219.41
2023-04-28T08:36:32.679Z,101221.84
2023-04-28T08:39:13.038Z,101225.06
2023-04-28T08:41:46.943Z,101215.31
2023-04-28T08:44:15.606Z,101212.41
2023-04-28T08:46:49.114Z,101206.72
2023-04-28T08:49:20.752Z,101211.22
2023-04-28T08:51:59.668Z,101215.28
2023-04-28T08:54:34.342Z,101219.41
2023-04-28T08:57:09.741Z,101219.53
2023-04-28T08:59:43.626Z,101213.47
2023-04-28T09:02:17.307Z,101217.91
2023-04-28T09:04:48.621Z,101220.34
2023-04-28T09:07:21.280Z,101218.31
2023-04-28T09:10:27.754Z,101211.47
2023-04-28T09:12:56.906Z,101223.63
2023-04-28T09:15:41.052Z,101216.69
2023-04-28T09:18:18.318Z,101215.06
2023-04-28T09:20:49.160Z,101219.16
2023-04-28T09:23:27.994Z,101208.19
2023-04-28T09:26:06.733Z,101215.78
2023-04-28T09:28:39.678Z,101207.63
2023-04-28T09:31:29.139Z,101201.16
2023-04-28T09:34:03.251Z,101211.31
2023-04-28T09:36:31.074Z,101213.78
2023-04-28T09:39:07.806Z,101227.16
2023-04-28T09:41:47.519Z,101225.19
2023-04-28T09:44:24.473Z,101223.56
2023-04-28T09:46:52.482Z,101220.72
2023-04-28T09:49:23.490Z,101213.41
2023-04-28T09:51:55.786Z,101211.44
2023-04-28T09:54:29.159Z,101211.78
2023-04-28T09:57:00.177Z,101215.03
2023-04-28T09:59:33.399Z,101202.47
2023-04-28T10:02:22.509Z,101202.09
2023-04-28T10:04:59.396Z,101202.50
2023-04-28T10:07:39.394Z,101190.31
2023-04-28T10:10:17.622Z,101187.84
2023-04-28T10:12:48.977Z,101178.53
2023-04-28T10:15:23.480Z,101173.63
2023-04-28T10:18:00.298Z,101172.41
2023-04-28T10:20:31.095Z,101178.84
2023-04-28T10:23:25.839Z,101163.81
2023-04-28T10:26:00.428Z,101153.22
2023-04-28T10:28:34.948Z,101142.22
2023-04-28T10:31:21.282Z,101149.47
2023-04-28T10:33:52.615Z,101151.09
2023-04-28T10:36:54.737Z,101142.88
2023-04-28T10:39:36.294Z,101138.22
2023-04-28T10:42:45.069Z,101132.59
2023-04-28T10:45:56.420Z,101133.81
2023-04-28T10:48:34.336Z,101122.03
2023-04-28T10:51:14.249Z,101118.44
2023-04-28T10:53:51.319Z,101122.97
2023-04-28T10:56:25.606Z,101127.13
2023-04-28T10:58:56.374Z,101118.31
2023-04-28T11:01:42.606Z,101121.16
2023-04-28T11:04:21.977Z,101121.66
2023-04-28T11:07:17.672Z,101124.53
2023-04-28T11:10:01.470Z,101132.66
2023-04-28T11:12:37.140Z,101126.19
2023-04-28T11:15:24.454Z,101135.50
2023-04-28T11:18:07.750Z,101134.28
2023-04-28T11:20:41.281Z,101140.81
2023-04-28T11:23:17.293Z,101127.00
2023-04-28T11:25:59.753Z,101124.56
2023-04-28T11:28:28.216Z,101121.34
2023-04-28T11:31:14.836Z,101120.53
2023-04-28T11:33:58.856Z,101111.59
2023-04-28T11:36:36.309Z,101103.91
2023-04-28T11:39:08.409Z,101113.25
2023-04-28T11:41:43.989Z,101107.16
2023-04-28T11:44:18.610Z,101106.78
2023-04-28T11:47:16.535Z,101099.06
2023-04-28T11:49:49.961Z,101106.38
2023-04-28T11:52:18.583Z,101099.44
2023-04-28T11:54:59.267Z,101092.63
2023-04-28T11:57:29.525Z,101100.34
2023-04-28T12:00:21.880Z,101093.03
2023-04-28T12:02:53.290Z,101089.00
2023-04-28T12:05:22.559Z,101073.19
2023-04-28T12:07:53.591Z,101074.81
2023-04-28T12:10:24.351Z,101067.53
2023-04-28T12:12:57.562Z,101077.22
2023-04-28T12:15:41.419Z,101058.16
2023-04-28T12:18:16.957Z,101050.84
2023-04-28T12:20:49.875Z,101045.22
2023-04-28T12:23:32.504Z,101055.72
2023-04-28T12:26:03.216Z,101051.63
2023-04-28T12:28:43.748Z,101053.53
2023-04-28T12:31:11.895Z,101050.72
2023-04-28T12:33:40.857Z,101042.72
2023-04-28T12:36:16.802Z,101047.22
2023-04-28T12:38:51.436Z,101042.25
2023-04-28T12:41:27.360Z,101036.31
2023-04-28T12:44:04.463Z,101027.28
2023-04-28T12:46:40.734Z,101030.44
2023-04-28T12:49:16.787Z,101028.41
2023-04-28T12:51:50.471Z,101023.59
2023-04-28T12:54:18.692Z,101015.03
2023-04-28T12:56:46.961Z,101011.84
2023-04-28T12:59:24.001Z,101004.94
2023-04-28T13:02:01.003Z,101005.41
2023-04-28T13:04:32.834Z,101004.47
2023-04-28T13:07:07.400Z,100995.44
2023-04-28T13:09:40.317Z,100989.44
2023-04-28T13:12:17.614Z,100995.81
2023-04-28T13:14:48.465Z,100983.88
2023-04-28T13:17:19.562Z,100997.44
2023-04-28T13:19:53.012Z,100976.13
2023-04-28T13:22:29.240Z,100969.91
2023-04-28T13:25:05.890Z,100972.75
2023-04-28T13:27:33.873Z,100961.53
2023-04-28T13:30:08.950Z,100961.88
2023-04-28T13:32:40.742Z,100958.25
2023-04-28T13:35:15.152Z,100962.97
2023-04-28T13:37:56.544Z,100956.94
2023-04-28T13:40:26.829Z,100953.94
2023-04-28T13:43:00.486Z,100955.78
2023-04-28T13:45:31.721Z,100954.59
2023-04-28T13:48:03.521Z,100944.56
2023-04-28T13:50:31.815Z,100945.38
2023-04-28T13:53:08.592Z,100938.16
2023-04-28T13:55:48.840Z,100931.34
2023-04-28T13:58:26.383Z,100919.91
2023-04-28T14:00:57.808Z,100910.19
2023-04-28T14:03:26.825Z,100908.59
2023-04-28T14:06:00.579Z,100910.28
2023-04-28T14:08:34.102Z,100907.44
2023-04-28T14:11:08.257Z,100898.47
2023-04-28T14:13:36.740Z,100910.16
2023-04-28T14:16:10.880Z,100898.91
2023-04-28T14:18:39.708Z,100894.41
2023-04-28T14:21:12.294Z,100889.53
2023-04-28T14:23:40.560Z,100891.16
2023-04-28T14:26:09.174Z,100882.75
2023-04-28T14:28:42.936Z,100871.03
2023-04-28T14:31:14.115Z,100868.25
2023-04-28T14:33:42.803Z,100879.94
2023-04-28T14:36:13.581Z,100875.03
2023-04-28T14:38:43.934Z,100860.84
2023-04-28T14:41:18.706Z,100859.66
2023-04-28T14:43:49.958Z,100861.34
2023-04-28T14:46:24.270Z,100862.19
2023-04-28T14:48:58.661Z,100866.25
2023-04-28T14:51:30.152Z,100867.47
2023-04-28T14:54:02.360Z,100861.38
2023-04-28T14:56:31.611Z,100852.03
2023-04-28T14:59:03.813Z,100851.28
2023-04-28T15:01:31.483Z,100846.41
2023-04-28T15:04:05.129Z,100856.13
2023-04-28T15:06:36.219Z,100845.56
2023-04-28T15:09:07.180Z,100847.19
2023-04-28T15:11:37.433Z,100862.94
2023-04-28T15:14:06.586Z,100850.44
2023-04-28T15:16:39.469Z,100855.69
2023-04-28T15:19:10.215Z,100850.03
2023-04-28T15:21:46.762Z,100847.97
2023-04-28T15:24:25.190Z,100846.88
2023-04-28T15:26:56.620Z,100839.69
2023-04-28T15:29:27.842Z,100836.00
2023-04-28T15:31:59.887Z,100825.34
2023-04-28T15:34:33.611Z,100824.22
2023-04-28T15:37:27.202Z,100833.75
2023-04-28T15:40:22.144Z,100822.38
2023-04-28T15:42:56.500Z,100816.81
2023-04-28T15:45:36.025Z,100818.63
2023-04-28T15:48:12.235Z,100817.06
2023-04-28T15:50:42.887Z,100819.91
2023-04-28T15:53:14.221Z,100815.91
2023-04-28T15:55:48.065Z,100814.16
2023-04-28T15:58:25.311Z,100809.50
2023-04-28T16:00:59.777Z,100812.84
2023-04-28T16:03:27.886Z,100805.50
2023-04-28T16:06:04.496Z,100797.84
2023-04-28T16:08:33.284Z,100812.06
2023-04-28T16:11:11.954Z,100813.72
2023-04-28T16:13:45.947Z,100809.84
2023-04-28T16:16:13.651Z,100809.50
2023-04-28T16:18:46.392Z,100797.75
2023-04-28T16:21:17.619Z,100795.63
2023-04-28T16:23:45.673Z,100798.03
2023-04-28T16:26:16.425Z,100784.34
2023-04-28T16:28:44.454Z,100790.81
2023-04-28T16:31:17.613Z,100795.34
2023-04-28T16:33:52.965Z,100786.47
2023-04-28T16:36:21.709Z,100786.81
2023-04-28T16:38:52.470Z,100784.78
2023-04-28T16:41:20.207Z,100775.41
2023-04-28T16:43:53.305Z,100777.00
2023-04-28T16:46:21.133Z,100772.91
2023-04-28T16:48:56.844Z,100777.00
2023-04-28T16:51:24.391Z,100774.16
2023-04-28T16:53:59.822Z,100781.84
2023-04-28T16:56:28.389Z,100773.75
2023-04-28T16:58:58.664Z,100772.53
2023-04-28T17:01:28.490Z,100765.25
2023-04-28T17:03:56.777Z,100771.34
2023-04-28T17:06:28.011Z,100768.50
2023-04-28T17:08:55.440Z,100768.91
2023-04-28T17:11:25.026Z,100774.16
2023-04-28T17:13:52.323Z,100780.25
2023-04-28T17:16:20.161Z,100773.75
2023-04-28T17:18:47.590Z,100781.03
2023-04-28T17:21:15.813Z,100774.16
2023-04-28T17:23:48.364Z,100773.75
2023-04-28T17:26:16.959Z,100780.25
2023-04-28T17:28:44.654Z,100778.22
2023-04-28T17:31:13.452Z,100770.97
2023-04-28T17:33:41.002Z,100770.94
2023-04-28T17:36:13.939Z,100773.75
2023-04-28T17:38:43.928Z,100770.91
2023-04-28T17:41:15.190Z,100777.00
2023-04-28T17:43:48.214Z,100771.31
2023-04-28T17:46:17.198Z,100776.59
2023-04-28T17:48:47.038Z,100781.06
2023-04-28T17:51:15.498Z,100774.56
2023-04-28T17:53:48.639Z,100775.41
2023-04-28T17:56:19.655Z,100784.31
2023-04-28T17:58:47.717Z,100784.72
2023-04-28T18:01:18.591Z,100775.81
2023-04-28T18:03:46.280Z,100781.09
2023-04-28T18:06:22.292Z,100777.44
2023-04-28T18:08:57.035Z,100771.75
2023-04-28T18:11:31.826Z,100772.97
2023-04-28T18:14:00.309Z,100780.25
2023-04-28T18:16:27.841Z,100774.56
2023-04-28T18:18:58.260Z,100774.56
2023-04-28T18:21:25.883Z,100769.31
2023-04-28T18:23:53.588Z,100771.78
2023-04-28T18:26:26.554Z,100775.41
2023-04-28T18:28:53.845Z,100770.94
2023-04-28T18:31:24.528Z,100762.41
2023-04-28T18:33:52.286Z,100762.44
2023-04-28T18:36:22.120Z,100761.63
2023-04-28T18:38:56.134Z,100770.97
2023-04-28T18:41:31.781Z,100783.16
2023-04-28T18:44:02.736Z,100785.97
2023-04-28T18:46:32.687Z,100789.63
2023-04-28T18:49:02.539Z,100792.06
2023-04-28T18:51:29.890Z,100790.44
2023-04-28T18:53:57.306Z,100800.97
2023-04-28T18:56:36.045Z,100806.25
2023-04-28T18:59:09.541Z,100795.69
2023-04-28T19:01:38.065Z,100804.22
2023-04-28T19:04:06.550Z,100803.81
2023-04-28T19:06:36.231Z,100820.03
2023-04-28T19:09:04.943Z,100821.63
2023-04-28T19:11:35.728Z,100811.91
2023-04-28T19:14:03.247Z,100816.75
2023-04-28T19:16:33.846Z,100814.34
2023-04-28T19:19:03.682Z,100817.97
2023-04-28T19:21:34.538Z,100823.25
2023-04-28T19:24:05.242Z,100834.19
2023-04-28T19:26:32.825Z,100842.31
2023-04-28T19:29:03.428Z,100847.16
2023-04-28T19:31:31.263Z,100839.03
2023-04-28T19:34:02.532Z,100835.03
2023-04-28T19:36:33.195Z,100835.84
2023-04-28T19:39:08.385Z,100836.63
2023-04-28T19:41:36.706Z,100836.66
2023-04-28T19:44:07.167Z,100847.59
2023-04-28T19:46:35.965Z,100851.63
2023-04-28T19:49:03.666Z,100856.06
2023-04-28T19:51:32.552Z,100859.31
2023-04-28T19:53:59.862Z,100863.75
2023-04-28T19:56:27.944Z,100867.84
2023-04-28T19:58:59.154Z,100867.81
2023-04-28T20:01:27.003Z,100868.22
2023-04-28T20:03:54.888Z,100860.13
2023-04-28T20:06:22.503Z,100871.06
2023-04-28T20:08:52.224Z,100862.19
2023-04-28T20:11:25.675Z,100858.53
2023-04-28T20:13:52.950Z,100863.78
2023-04-28T20:16:24.848Z,100859.72
2023-04-28T20:19:02.888Z,100866.19
2023-04-28T20:21:32.791Z,100857.31
2023-04-28T20:24:00.178Z,100862.16
2023-04-28T20:26:33.247Z,100847.16
2023-04-28T20:29:03.961Z,100850.84
2023-04-28T20:31:32.058Z,100850.41
2023-04-28T20:34:00.662Z,100850.00
2023-04-28T20:36:33.675Z,100853.66
2023-04-28T20:39:07.663Z,100845.16
2023-04-28T20:41:38.927Z,100838.69
2023-04-28T20:44:08.773Z,100846.78
2023-04-28T20:46:39.887Z,100851.25
2023-04-28T20:49:11.047Z,100848.41
2023-04-28T20:51:45.444Z,100845.56
2023-04-28T20:54:14.517Z,100844.78
2023-04-28T20:56:46.193Z,100845.59
2023-04-28T20:59:13.720Z,100848.41
2023-04-28T21:01:41.310Z,100847.59
2023-04-28T21:04:12.570Z,100838.31
2023-04-28T21:06:53.604Z,100835.88
2023-04-28T21:09:21.341Z,100837.91
2023-04-28T21:11:52.785Z,100835.47
2023-04-28T21:14:20.390Z,100831.00
2023-04-28T21:16:47.973Z,100836.25
2023-04-28T21:19:18.556Z,100845.59
2023-04-28T21:21:45.985Z,100848.00
2023-04-28T21:24:18.078Z,100838.72
2023-04-28T21:26:45.513Z,100835.47
2023-04-28T21:29:13.556Z,100833.84
2023-04-28T21:31:45.845Z,100835.06
2023-04-28T21:34:13.457Z,100836.66
2023-04-28T21:36:41.117Z,100834.66
2023-04-28T21:39:11.211Z,100848.44
2023-04-28T21:41:41.396Z,100838.31
2023-04-28T21:44:13.514Z,100820.47
2023-04-28T21:46:44.011Z,100822.50
2023-04-28T21:49:14.490Z,100834.66
2023-04-28T21:51:45.823Z,100832.63
2023-04-28T21:54:14.431Z,100837.50
2023-04-28T21:56:47.160Z,100838.72
2023-04-28T21:59:17.987Z,100851.66
2023-04-28T22:01:48.487Z,100862.59
2023-04-28T22:04:16.838Z,100860.56
2023-04-28T22:06:47.739Z,100846.41
2023-04-28T22:09:15.408Z,100841.13
2023-04-28T22:11:42.782Z,100839.94
2023-04-28T22:14:21.590Z,100843.16
2023-04-28T22:17:00.084Z,100848.00
2023-04-28T22:19:28.115Z,100846.00
2023-04-28T22:21:58.415Z,100837.50
2023-04-28T22:24:29.176Z,100856.53
2023-04-28T22:26:59.729Z,100855.31
2023-04-28T22:29:28.609Z,100850.84
2023-04-28T22:31:58.832Z,100847.59
2023-04-28T22:34:26.551Z,100853.69
2023-04-28T22:36:54.265Z,100861.78
2023-04-28T22:39:25.184Z,100852.09
2023-04-28T22:41:55.922Z,100849.63
2023-04-28T22:44:29.279Z,100854.09
2023-04-28T22:46:59.488Z,100852.09
2023-04-28T22:49:30.584Z,100835.47
2023-04-28T22:51:58.675Z,100834.66
2023-04-28T22:54:28.658Z,100826.16
2023-04-28T22:56:59.245Z,100826.56
2023-04-28T22:59:29.752Z,100824.53
2023-04-28T23:02:00.320Z,100814.44
2023-04-28T23:04:28.113Z,100816.84
2023-04-28T23:07:00.962Z,100823.31
2023-04-28T23:09:35.946Z,100819.69
2023-04-28T23:12:04.213Z,100831.84
2023-04-28T23:14:34.882Z,100828.59
2023-04-28T23:17:05.094Z,100829.81
2023-04-28T23:19:39.266Z,100830.63
2023-04-28T23:22:10.102Z,100831.44
2023-04-28T23:24:40.134Z,100826.19
2023-04-28T23:27:09.785Z,100823.75
2023-04-28T23:29:39.697Z,100825.78
2023-04-28T23:32:07.450Z,100824.53
2023-04-28T23:34:38.295Z,100820.50
2023-04-28T23:37:12.872Z,100822.53
2023-04-28T23:39:42.596Z,100813.22
2023-04-28T23:42:13.265Z,100806.34
2023-04-28T23:44:45.923Z,100809.59
2023-04-28T23:47:16.118Z,100817.28
2023-04-28T23:49:45.802Z,100809.59
2023-04-28T23:52:13.356Z,100799.44
2023-04-28T23:54:40.691Z,100781.66
2023-04-28T23:57:10.811Z,100769.13
2023-04-28T23:59:45.954Z,100745.66
